sensor_id;sensor_type;location;lat;lon;timestamp;P1;durP1;ratioP1;P2;durP2;ratioP2
70825;SDS011;58446;41.490;22.098;2023-06-24T00:02:08;10.50;;;7.53;;
70825;SDS011;58446;41.490;22.098;2023-06-24T00:04:34;12.32;;;7.82;;
70825;SDS011;58446;41.490;22.098;2023-06-24T00:07:00;12.55;;;7.85;;
70825;SDS011;58446;41.490;22.098;2023-06-24T00:09:27;11.30;;;8.10;;
70825;SDS011;58446;41.490;22.098;2023-06-24T00:11:53;11.43;;;7.65;;
70825;SDS011;58446;41.490;22.098;2023-06-24T00:14:20;11.52;;;7.45;;
70825;SDS011;58446;41.490;22.098;2023-06-24T00:16:47;12.90;;;8.20;;
70825;SDS011;58446;41.490;22.098;2023-06-24T00:19:21;12.50;;;7.77;;
70825;SDS011;58446;41.490;22.098;2023-06-24T00:21:48;11.77;;;7.53;;
70825;SDS011;58446;41.490;22.098;2023-06-24T00:24:18;12.85;;;7.93;;
70825;SDS011;58446;41.490;22.098;2023-06-24T00:26:51;11.93;;;7.30;;
70825;SDS011;58446;41.490;22.098;2023-06-24T00:29:17;11.02;;;6.53;;
70825;SDS011;58446;41.490;22.098;2023-06-24T00:31:43;11.50;;;7.40;;
70825;SDS011;58446;41.490;22.098;2023-06-24T00:34:09;10.95;;;7.45;;
70825;SDS011;58446;41.490;22.098;2023-06-24T00:36:35;12.00;;;7.57;;
70825;SDS011;58446;41.490;22.098;2023-06-24T00:39:01;11.75;;;7.72;;
70825;SDS011;58446;41.490;22.098;2023-06-24T00:41:29;11.10;;;6.88;;
70825;SDS011;58446;41.490;22.098;2023-06-24T00:43:56;12.52;;;7.15;;
70825;SDS011;58446;41.490;22.098;2023-06-24T00:46:23;12.05;;;8.30;;
70825;SDS011;58446;41.490;22.098;2023-06-24T00:48:51;13.43;;;7.90;;
70825;SDS011;58446;41.490;22.098;2023-06-24T00:51:17;11.05;;;8.05;;
70825;SDS011;58446;41.490;22.098;2023-06-24T00:53:58;11.82;;;8.20;;
70825;SDS011;58446;41.490;22.098;2023-06-24T00:56:31;14.15;;;7.82;;
70825;SDS011;58446;41.490;22.098;2023-06-24T00:59:00;10.85;;;7.35;;
70825;SDS011;58446;41.490;22.098;2023-06-24T01:01:32;13.23;;;7.60;;
70825;SDS011;58446;41.490;22.098;2023-06-24T01:04:01;10.43;;;7.55;;
70825;SDS011;58446;41.490;22.098;2023-06-24T01:06:28;12.75;;;7.97;;
70825;SDS011;58446;41.490;22.098;2023-06-24T01:09:00;12.27;;;7.30;;
70825;SDS011;58446;41.490;22.098;2023-06-24T01:11:27;10.38;;;7.70;;
70825;SDS011;58446;41.490;22.098;2023-06-24T01:13:54;12.40;;;7.40;;
70825;SDS011;58446;41.490;22.098;2023-06-24T01:25:29;10.80;;;7.87;;
70825;SDS011;58446;41.490;22.098;2023-06-24T01:30:59;11.00;;;7.90;;
70825;SDS011;58446;41.490;22.098;2023-06-24T01:33:55;11.80;;;7.97;;
70825;SDS011;58446;41.490;22.098;2023-06-24T01:36:27;11.48;;;7.63;;
70825;SDS011;58446;41.490;22.098;2023-06-24T01:38:56;11.73;;;7.97;;
70825;SDS011;58446;41.490;22.098;2023-06-24T01:41:26;13.65;;;7.97;;
70825;SDS011;58446;41.490;22.098;2023-06-24T01:43:57;12.15;;;8.85;;
70825;SDS011;58446;41.490;22.098;2023-06-24T01:46:25;11.07;;;7.95;;
70825;SDS011;58446;41.490;22.098;2023-06-24T01:48:53;12.25;;;8.10;;
70825;SDS011;58446;41.490;22.098;2023-06-24T01:51:23;12.33;;;8.33;;
70825;SDS011;58446;41.490;22.098;2023-06-24T01:53:51;12.18;;;8.15;;
70825;SDS011;58446;41.490;22.098;2023-06-24T01:56:20;11.82;;;8.75;;
70825;SDS011;58446;41.490;22.098;2023-06-24T01:58:48;12.60;;;8.50;;
70825;SDS011;58446;41.490;22.098;2023-06-24T02:01:17;13.10;;;9.05;;
70825;SDS011;58446;41.490;22.098;2023-06-24T02:03:43;11.47;;;8.60;;
70825;SDS011;58446;41.490;22.098;2023-06-24T02:06:10;13.50;;;9.30;;
70825;SDS011;58446;41.490;22.098;2023-06-24T02:08:37;14.82;;;9.35;;
70825;SDS011;58446;41.490;22.098;2023-06-24T02:11:05;13.65;;;9.25;;
70825;SDS011;58446;41.490;22.098;2023-06-24T02:13:51;13.02;;;8.60;;
70825;SDS011;58446;41.490;22.098;2023-06-24T02:16:19;12.30;;;8.97;;
70825;SDS011;58446;41.490;22.098;2023-06-24T02:18:47;12.65;;;8.77;;
70825;SDS011;58446;41.490;22.098;2023-06-24T02:21:14;12.70;;;8.50;;
70825;SDS011;58446;41.490;22.098;2023-06-24T02:23:43;11.43;;;8.48;;
70825;SDS011;58446;41.490;22.098;2023-06-24T02:26:09;13.60;;;8.82;;
70825;SDS011;58446;41.490;22.098;2023-06-24T02:28:35;11.53;;;8.03;;
70825;SDS011;58446;41.490;22.098;2023-06-24T02:31:04;12.70;;;8.15;;
70825;SDS011;58446;41.490;22.098;2023-06-24T02:33:31;11.68;;;8.25;;
70825;SDS011;58446;41.490;22.098;2023-06-24T02:35:57;11.55;;;7.47;;
70825;SDS011;58446;41.490;22.098;2023-06-24T02:38:23;13.27;;;8.97;;
70825;SDS011;58446;41.490;22.098;2023-06-24T02:40:49;13.10;;;8.95;;
70825;SDS011;58446;41.490;22.098;2023-06-24T02:43:15;12.93;;;8.03;;
70825;SDS011;58446;41.490;22.098;2023-06-24T02:45:41;12.85;;;8.48;;
70825;SDS011;58446;41.490;22.098;2023-06-24T02:48:07;11.83;;;8.40;;
70825;SDS011;58446;41.490;22.098;2023-06-24T02:50:35;12.40;;;8.50;;
70825;SDS011;58446;41.490;22.098;2023-06-24T02:53:02;11.75;;;8.43;;
70825;SDS011;58446;41.490;22.098;2023-06-24T02:55:29;13.93;;;8.25;;
70825;SDS011;58446;41.490;22.098;2023-06-24T02:57:56;12.80;;;8.60;;
70825;SDS011;58446;41.490;22.098;2023-06-24T03:00:23;12.23;;;8.45;;
70825;SDS011;58446;41.490;22.098;2023-06-24T03:02:49;12.93;;;8.30;;
70825;SDS011;58446;41.490;22.098;2023-06-24T03:05:15;12.65;;;8.85;;
70825;SDS011;58446;41.490;22.098;2023-06-24T03:07:42;14.38;;;8.52;;
70825;SDS011;58446;41.490;22.098;2023-06-24T03:10:08;13.65;;;8.60;;
70825;SDS011;58446;41.490;22.098;2023-06-24T03:12:35;12.03;;;8.20;;
70825;SDS011;58446;41.490;22.098;2023-06-24T03:15:01;12.05;;;7.82;;
70825;SDS011;58446;41.490;22.098;2023-06-24T03:17:27;12.57;;;8.30;;
70825;SDS011;58446;41.490;22.098;2023-06-24T03:19:53;13.97;;;7.87;;
70825;SDS011;58446;41.490;22.098;2023-06-24T03:22:19;12.65;;;8.30;;
70825;SDS011;58446;41.490;22.098;2023-06-24T03:24:46;11.82;;;7.97;;
70825;SDS011;58446;41.490;22.098;2023-06-24T03:27:11;10.87;;;7.97;;
70825;SDS011;58446;41.490;22.098;2023-06-24T03:29:38;12.23;;;7.55;;
70825;SDS011;58446;41.490;22.098;2023-06-24T03:32:03;11.10;;;8.47;;
70825;SDS011;58446;41.490;22.098;2023-06-24T03:34:29;13.60;;;8.63;;
70825;SDS011;58446;41.490;22.098;2023-06-24T03:36:55;13.63;;;7.43;;
70825;SDS011;58446;41.490;22.098;2023-06-24T03:39:20;12.95;;;7.47;;
70825;SDS011;58446;41.490;22.098;2023-06-24T03:41:46;12.13;;;7.60;;
70825;SDS011;58446;41.490;22.098;2023-06-24T03:44:12;12.43;;;7.93;;
70825;SDS011;58446;41.490;22.098;2023-06-24T03:46:38;12.73;;;8.20;;
70825;SDS011;58446;41.490;22.098;2023-06-24T03:49:04;11.80;;;8.97;;
70825;SDS011;58446;41.490;22.098;2023-06-24T03:51:30;11.38;;;8.80;;
70825;SDS011;58446;41.490;22.098;2023-06-24T03:53:56;12.05;;;8.40;;
70825;SDS011;58446;41.490;22.098;2023-06-24T03:56:22;13.07;;;8.82;;
70825;SDS011;58446;41.490;22.098;2023-06-24T03:58:48;13.67;;;8.30;;
70825;SDS011;58446;41.490;22.098;2023-06-24T04:01:13;12.63;;;8.43;;
70825;SDS011;58446;41.490;22.098;2023-06-24T04:03:39;12.83;;;7.90;;
70825;SDS011;58446;41.490;22.098;2023-06-24T04:06:05;13.80;;;9.30;;
70825;SDS011;58446;41.490;22.098;2023-06-24T04:08:30;14.80;;;8.97;;
70825;SDS011;58446;41.490;22.098;2023-06-24T04:10:59;13.70;;;9.20;;
70825;SDS011;58446;41.490;22.098;2023-06-24T04:13:25;12.70;;;8.80;;
70825;SDS011;58446;41.490;22.098;2023-06-24T04:15:51;14.88;;;9.10;;
70825;SDS011;58446;41.490;22.098;2023-06-24T04:18:17;15.52;;;9.95;;
70825;SDS011;58446;41.490;22.098;2023-06-24T04:20:43;14.80;;;9.30;;
70825;SDS011;58446;41.490;22.098;2023-06-24T04:23:09;14.90;;;9.37;;
70825;SDS011;58446;41.490;22.098;2023-06-24T04:25:36;14.27;;;9.45;;
70825;SDS011;58446;41.490;22.098;2023-06-24T04:28:02;17.45;;;10.43;;
70825;SDS011;58446;41.490;22.098;2023-06-24T04:30:30;17.23;;;10.13;;
70825;SDS011;58446;41.490;22.098;2023-06-24T04:32:56;15.52;;;9.65;;
70825;SDS011;58446;41.490;22.098;2023-06-24T04:35:21;14.55;;;9.85;;
70825;SDS011;58446;41.490;22.098;2023-06-24T04:37:47;15.53;;;10.00;;
70825;SDS011;58446;41.490;22.098;2023-06-24T04:40:15;18.35;;;10.35;;
70825;SDS011;58446;41.490;22.098;2023-06-24T04:42:42;17.45;;;10.65;;
70825;SDS011;58446;41.490;22.098;2023-06-24T04:45:07;18.47;;;10.23;;
70825;SDS011;58446;41.490;22.098;2023-06-24T04:47:33;15.80;;;9.50;;
70825;SDS011;58446;41.490;22.098;2023-06-24T04:49:59;15.90;;;10.07;;
70825;SDS011;58446;41.490;22.098;2023-06-24T04:52:25;16.80;;;10.33;;
70825;SDS011;58446;41.490;22.098;2023-06-24T04:54:50;15.40;;;9.40;;
70825;SDS011;58446;41.490;22.098;2023-06-24T04:57:28;13.82;;;9.68;;
70825;SDS011;58446;41.490;22.098;2023-06-24T04:59:56;13.48;;;9.68;;
70825;SDS011;58446;41.490;22.098;2023-06-24T05:02:22;13.70;;;9.63;;
70825;SDS011;58446;41.490;22.098;2023-06-24T05:04:48;13.00;;;9.52;;
70825;SDS011;58446;41.490;22.098;2023-06-24T05:07:14;14.60;;;8.98;;
70825;SDS011;58446;41.490;22.098;2023-06-24T05:09:40;19.20;;;8.95;;
70825;SDS011;58446;41.490;22.098;2023-06-24T05:12:06;12.70;;;8.27;;
70825;SDS011;58446;41.490;22.098;2023-06-24T05:14:35;14.57;;;9.02;;
70825;SDS011;58446;41.490;22.098;2023-06-24T05:17:04;13.25;;;8.45;;
70825;SDS011;58446;41.490;22.098;2023-06-24T05:19:30;12.67;;;9.27;;
70825;SDS011;58446;41.490;22.098;2023-06-24T05:21:56;14.65;;;9.60;;
70825;SDS011;58446;41.490;22.098;2023-06-24T05:24:22;15.88;;;9.32;;
70825;SDS011;58446;41.490;22.098;2023-06-24T05:26:49;13.00;;;8.67;;
70825;SDS011;58446;41.490;22.098;2023-06-24T05:29:16;14.00;;;8.50;;
70825;SDS011;58446;41.490;22.098;2023-06-24T05:31:42;12.40;;;9.27;;
70825;SDS011;58446;41.490;22.098;2023-06-24T05:34:08;16.13;;;9.17;;
70825;SDS011;58446;41.490;22.098;2023-06-24T05:36:34;12.95;;;8.57;;
70825;SDS011;58446;41.490;22.098;2023-06-24T05:39:01;14.63;;;9.18;;
70825;SDS011;58446;41.490;22.098;2023-06-24T05:41:26;14.90;;;9.27;;
70825;SDS011;58446;41.490;22.098;2023-06-24T05:44:04;14.63;;;8.83;;
70825;SDS011;58446;41.490;22.098;2023-06-24T05:46:32;13.45;;;8.55;;
70825;SDS011;58446;41.490;22.098;2023-06-24T05:48:58;12.32;;;8.18;;
70825;SDS011;58446;41.490;22.098;2023-06-24T05:51:23;15.27;;;8.13;;
70825;SDS011;58446;41.490;22.098;2023-06-24T05:53:49;13.90;;;8.68;;
70825;SDS011;58446;41.490;22.098;2023-06-24T05:56:14;14.67;;;8.43;;
70825;SDS011;58446;41.490;22.098;2023-06-24T05:58:40;12.13;;;8.40;;
70825;SDS011;58446;41.490;22.098;2023-06-24T06:01:06;13.45;;;8.07;;
70825;SDS011;58446;41.490;22.098;2023-06-24T06:03:32;12.48;;;8.32;;
70825;SDS011;58446;41.490;22.098;2023-06-24T06:05:58;12.83;;;8.90;;
70825;SDS011;58446;41.490;22.098;2023-06-24T06:08:24;14.32;;;9.50;;
70825;SDS011;58446;41.490;22.098;2023-06-24T06:10:49;12.73;;;8.90;;
70825;SDS011;58446;41.490;22.098;2023-06-24T06:13:15;15.07;;;8.97;;
70825;SDS011;58446;41.490;22.098;2023-06-24T06:15:40;14.00;;;7.72;;
70825;SDS011;58446;41.490;22.098;2023-06-24T06:18:06;13.47;;;8.70;;
70825;SDS011;58446;41.490;22.098;2023-06-24T06:20:32;15.20;;;8.80;;
70825;SDS011;58446;41.490;22.098;2023-06-24T06:22:57;12.77;;;7.83;;
70825;SDS011;58446;41.490;22.098;2023-06-24T06:25:23;10.80;;;7.50;;
70825;SDS011;58446;41.490;22.098;2023-06-24T06:27:48;12.52;;;7.93;;
70825;SDS011;58446;41.490;22.098;2023-06-24T06:30:14;10.57;;;7.70;;
70825;SDS011;58446;41.490;22.098;2023-06-24T06:32:40;11.40;;;7.20;;
70825;SDS011;58446;41.490;22.098;2023-06-24T06:35:06;12.25;;;7.82;;
70825;SDS011;58446;41.490;22.098;2023-06-24T06:37:33;11.60;;;7.27;;
70825;SDS011;58446;41.490;22.098;2023-06-24T06:39:58;12.00;;;8.48;;
70825;SDS011;58446;41.490;22.098;2023-06-24T06:42:24;11.77;;;8.00;;
70825;SDS011;58446;41.490;22.098;2023-06-24T06:44:50;12.38;;;8.52;;
70825;SDS011;58446;41.490;22.098;2023-06-24T06:47:15;12.00;;;8.03;;
70825;SDS011;58446;41.490;22.098;2023-06-24T06:49:41;11.13;;;7.80;;
70825;SDS011;58446;41.490;22.098;2023-06-24T06:52:07;11.97;;;8.13;;
70825;SDS011;58446;41.490;22.098;2023-06-24T06:54:33;13.13;;;8.25;;
70825;SDS011;58446;41.490;22.098;2023-06-24T06:57:04;10.63;;;7.88;;
70825;SDS011;58446;41.490;22.098;2023-06-24T06:59:30;11.03;;;7.37;;
70825;SDS011;58446;41.490;22.098;2023-06-24T07:01:57;10.90;;;8.18;;
70825;SDS011;58446;41.490;22.098;2023-06-24T07:04:22;15.15;;;8.77;;
70825;SDS011;58446;41.490;22.098;2023-06-24T07:06:48;11.83;;;8.10;;
70825;SDS011;58446;41.490;22.098;2023-06-24T07:09:14;11.88;;;7.75;;
70825;SDS011;58446;41.490;22.098;2023-06-24T07:11:40;10.40;;;7.50;;
70825;SDS011;58446;41.490;22.098;2023-06-24T07:14:06;10.68;;;7.65;;
70825;SDS011;58446;41.490;22.098;2023-06-24T07:16:32;10.82;;;7.22;;
70825;SDS011;58446;41.490;22.098;2023-06-24T07:18:58;12.80;;;7.53;;
70825;SDS011;58446;41.490;22.098;2023-06-24T07:21:24;10.60;;;7.80;;
70825;SDS011;58446;41.490;22.098;2023-06-24T07:23:49;10.67;;;7.53;;
70825;SDS011;58446;41.490;22.098;2023-06-24T07:26:15;10.23;;;7.90;;
70825;SDS011;58446;41.490;22.098;2023-06-24T07:28:41;12.10;;;8.00;;
70825;SDS011;58446;41.490;22.098;2023-06-24T07:31:06;15.90;;;7.78;;
70825;SDS011;58446;41.490;22.098;2023-06-24T07:33:32;12.53;;;7.53;;
70825;SDS011;58446;41.490;22.098;2023-06-24T07:35:59;12.90;;;7.60;;
70825;SDS011;58446;41.490;22.098;2023-06-24T07:38:25;14.10;;;8.35;;
70825;SDS011;58446;41.490;22.098;2023-06-24T07:40:51;10.57;;;7.30;;
70825;SDS011;58446;41.490;22.098;2023-06-24T07:43:16;11.87;;;7.70;;
70825;SDS011;58446;41.490;22.098;2023-06-24T07:45:42;11.43;;;7.97;;
70825;SDS011;58446;41.490;22.098;2023-06-24T07:48:08;14.23;;;7.75;;
70825;SDS011;58446;41.490;22.098;2023-06-24T07:50:34;12.27;;;7.30;;
70825;SDS011;58446;41.490;22.098;2023-06-24T07:53:01;11.20;;;7.63;;
70825;SDS011;58446;41.490;22.098;2023-06-24T07:55:27;10.95;;;7.80;;
70825;SDS011;58446;41.490;22.098;2023-06-24T07:57:53;11.87;;;7.70;;
70825;SDS011;58446;41.490;22.098;2023-06-24T08:00:19;10.70;;;7.40;;
70825;SDS011;58446;41.490;22.098;2023-06-24T08:02:44;11.40;;;7.63;;
70825;SDS011;58446;41.490;22.098;2023-06-24T08:05:10;10.75;;;8.00;;
70825;SDS011;58446;41.490;22.098;2023-06-24T08:07:36;10.03;;;7.63;;
70825;SDS011;58446;41.490;22.098;2023-06-24T08:10:03;10.40;;;7.70;;
70825;SDS011;58446;41.490;22.098;2023-06-24T08:12:31;13.55;;;7.85;;
70825;SDS011;58446;41.490;22.098;2023-06-24T08:14:56;10.63;;;7.70;;
70825;SDS011;58446;41.490;22.098;2023-06-24T08:17:22;10.53;;;7.40;;
70825;SDS011;58446;41.490;22.098;2023-06-24T08:19:48;11.93;;;8.32;;
70825;SDS011;58446;41.490;22.098;2023-06-24T08:22:14;12.03;;;8.07;;
70825;SDS011;58446;41.490;22.098;2023-06-24T08:24:39;11.05;;;8.15;;
70825;SDS011;58446;41.490;22.098;2023-06-24T08:27:05;11.03;;;7.97;;
70825;SDS011;58446;41.490;22.098;2023-06-24T08:29:31;12.38;;;7.55;;
70825;SDS011;58446;41.490;22.098;2023-06-24T08:31:56;11.30;;;7.30;;
70825;SDS011;58446;41.490;22.098;2023-06-24T08:34:22;11.48;;;7.00;;
70825;SDS011;58446;41.490;22.098;2023-06-24T08:36:48;11.27;;;7.67;;
70825;SDS011;58446;41.490;22.098;2023-06-24T08:39:13;11.73;;;7.68;;
70825;SDS011;58446;41.490;22.098;2023-06-24T08:41:39;12.70;;;7.40;;
70825;SDS011;58446;41.490;22.098;2023-06-24T08:44:05;13.47;;;7.67;;
70825;SDS011;58446;41.490;22.098;2023-06-24T08:46:30;13.07;;;7.53;;
70825;SDS011;58446;41.490;22.098;2023-06-24T08:49:31;11.98;;;7.88;;
70825;SDS011;58446;41.490;22.098;2023-06-24T08:51:59;12.37;;;7.97;;
70825;SDS011;58446;41.490;22.098;2023-06-24T08:54:34;15.35;;;7.70;;
70825;SDS011;58446;41.490;22.098;2023-06-24T08:57:01;11.77;;;8.30;;
70825;SDS011;58446;41.490;22.098;2023-06-24T08:59:30;13.30;;;8.23;;
70825;SDS011;58446;41.490;22.098;2023-06-24T09:01:56;13.30;;;8.23;;
70825;SDS011;58446;41.490;22.098;2023-06-24T09:04:22;10.73;;;8.20;;
70825;SDS011;58446;41.490;22.098;2023-06-24T09:06:48;10.65;;;7.55;;
70825;SDS011;58446;41.490;22.098;2023-06-24T09:09:18;14.40;;;7.87;;
70825;SDS011;58446;41.490;22.098;2023-06-24T09:11:52;12.13;;;7.53;;
70825;SDS011;58446;41.490;22.098;2023-06-24T09:14:19;11.98;;;8.60;;
70825;SDS011;58446;41.490;22.098;2023-06-24T09:16:57;13.90;;;8.23;;
70825;SDS011;58446;41.490;22.098;2023-06-24T09:19:24;11.73;;;8.03;;
70825;SDS011;58446;41.490;22.098;2023-06-24T09:21:54;11.60;;;8.10;;
70825;SDS011;58446;41.490;22.098;2023-06-24T09:24:22;10.70;;;7.82;;
70825;SDS011;58446;41.490;22.098;2023-06-24T09:26:55;12.02;;;7.97;;
70825;SDS011;58446;41.490;22.098;2023-06-24T09:29:25;13.75;;;8.98;;
70825;SDS011;58446;41.490;22.098;2023-06-24T09:31:54;11.20;;;7.57;;
70825;SDS011;58446;41.490;22.098;2023-06-24T09:34:25;14.02;;;8.85;;
70825;SDS011;58446;41.490;22.098;2023-06-24T09:36:55;13.98;;;8.57;;
70825;SDS011;58446;41.490;22.098;2023-06-24T09:39:22;11.32;;;8.07;;
70825;SDS011;58446;41.490;22.098;2023-06-24T09:41:54;12.02;;;7.90;;
70825;SDS011;58446;41.490;22.098;2023-06-24T09:44:20;12.07;;;7.90;;
70825;SDS011;58446;41.490;22.098;2023-06-24T09:46:46;11.75;;;7.88;;
70825;SDS011;58446;41.490;22.098;2023-06-24T09:49:12;13.38;;;8.18;;
70825;SDS011;58446;41.490;22.098;2023-06-24T09:51:39;12.60;;;7.82;;
70825;SDS011;58446;41.490;22.098;2023-06-24T09:54:08;11.13;;;7.95;;
70825;SDS011;58446;41.490;22.098;2023-06-24T09:56:36;11.97;;;7.80;;
70825;SDS011;58446;41.490;22.098;2023-06-24T09:59:05;13.85;;;7.90;;
70825;SDS011;58446;41.490;22.098;2023-06-24T10:01:38;12.88;;;8.02;;
70825;SDS011;58446;41.490;22.098;2023-06-24T10:04:06;11.35;;;8.10;;
70825;SDS011;58446;41.490;22.098;2023-06-24T10:06:35;12.10;;;8.68;;
70825;SDS011;58446;41.490;22.098;2023-06-24T10:09:01;12.30;;;7.80;;
70825;SDS011;58446;41.490;22.098;2023-06-24T10:11:27;13.82;;;8.30;;
70825;SDS011;58446;41.490;22.098;2023-06-24T10:13:53;11.88;;;8.77;;
70825;SDS011;58446;41.490;22.098;2023-06-24T10:16:19;11.45;;;7.90;;
70825;SDS011;58446;41.490;22.098;2023-06-24T10:18:45;11.27;;;8.33;;
70825;SDS011;58446;41.490;22.098;2023-06-24T10:21:11;12.60;;;8.25;;
70825;SDS011;58446;41.490;22.098;2023-06-24T10:23:53;11.52;;;7.45;;
70825;SDS011;58446;41.490;22.098;2023-06-24T10:26:25;12.30;;;8.48;;
70825;SDS011;58446;41.490;22.098;2023-06-24T10:37:04;11.48;;;8.07;;
70825;SDS011;58446;41.490;22.098;2023-06-24T10:39:56;12.73;;;8.10;;
70825;SDS011;58446;41.490;22.098;2023-06-24T10:44:49;14.07;;;7.97;;
70825;SDS011;58446;41.490;22.098;2023-06-24T10:47:16;11.45;;;7.72;;
70825;SDS011;58446;41.490;22.098;2023-06-24T10:49:42;15.45;;;8.23;;
70825;SDS011;58446;41.490;22.098;2023-06-24T10:52:09;12.70;;;7.93;;
70825;SDS011;58446;41.490;22.098;2023-06-24T10:54:36;11.15;;;7.22;;
70825;SDS011;58446;41.490;22.098;2023-06-24T10:57:05;11.55;;;7.88;;
70825;SDS011;58446;41.490;22.098;2023-06-24T10:59:35;13.60;;;7.35;;
70825;SDS011;58446;41.490;22.098;2023-06-24T11:02:13;11.93;;;8.13;;
70825;SDS011;58446;41.490;22.098;2023-06-24T11:04:45;12.70;;;8.13;;
70825;SDS011;58446;41.490;22.098;2023-06-24T11:07:21;11.90;;;8.00;;
70825;SDS011;58446;41.490;22.098;2023-06-24T11:09:49;12.77;;;8.68;;
70825;SDS011;58446;41.490;22.098;2023-06-24T11:12:19;11.38;;;7.93;;
70825;SDS011;58446;41.490;22.098;2023-06-24T11:14:49;12.55;;;8.18;;
70825;SDS011;58446;41.490;22.098;2023-06-24T11:17:14;12.90;;;8.03;;
70825;SDS011;58446;41.490;22.098;2023-06-24T11:19:40;12.70;;;8.47;;
70825;SDS011;58446;41.490;22.098;2023-06-24T11:22:08;12.70;;;8.07;;
70825;SDS011;58446;41.490;22.098;2023-06-24T11:24:34;13.65;;;8.82;;
70825;SDS011;58446;41.490;22.098;2023-06-24T11:27:01;11.60;;;7.78;;
70825;SDS011;58446;41.490;22.098;2023-06-24T11:29:30;11.32;;;7.45;;
70825;SDS011;58446;41.490;22.098;2023-06-24T11:31:57;11.83;;;7.93;;
70825;SDS011;58446;41.490;22.098;2023-06-24T11:34:23;12.10;;;7.55;;
70825;SDS011;58446;41.490;22.098;2023-06-24T11:36:49;11.75;;;7.60;;
70825;SDS011;58446;41.490;22.098;2023-06-24T11:39:24;14.77;;;8.03;;
70825;SDS011;58446;41.490;22.098;2023-06-24T11:41:53;10.85;;;7.72;;
70825;SDS011;58446;41.490;22.098;2023-06-24T11:44:25;10.77;;;7.68;;
70825;SDS011;58446;41.490;22.098;2023-06-24T11:46:51;11.82;;;7.03;;
70825;SDS011;58446;41.490;22.098;2023-06-24T11:49:17;12.77;;;7.95;;
70825;SDS011;58446;41.490;22.098;2023-06-24T11:51:47;11.60;;;7.73;;
70825;SDS011;58446;41.490;22.098;2023-06-24T11:54:14;11.85;;;7.50;;
70825;SDS011;58446;41.490;22.098;2023-06-24T11:56:48;13.15;;;7.45;;
70825;SDS011;58446;41.490;22.098;2023-06-24T11:59:18;11.00;;;7.50;;
70825;SDS011;58446;41.490;22.098;2023-06-24T12:01:46;13.00;;;8.20;;
70825;SDS011;58446;41.490;22.098;2023-06-24T12:04:21;12.87;;;7.53;;
70825;SDS011;58446;41.490;22.098;2023-06-24T12:06:52;12.05;;;7.35;;
70825;SDS011;58446;41.490;22.098;2023-06-24T12:09:17;13.38;;;8.63;;
70825;SDS011;58446;41.490;22.098;2023-06-24T12:11:43;10.77;;;7.63;;
70825;SDS011;58446;41.490;22.098;2023-06-24T12:14:09;12.57;;;8.20;;
70825;SDS011;58446;41.490;22.098;2023-06-24T12:16:34;12.00;;;8.50;;
70825;SDS011;58446;41.490;22.098;2023-06-24T12:19:00;13.17;;;8.10;;
70825;SDS011;58446;41.490;22.098;2023-06-24T12:21:27;12.70;;;7.47;;
70825;SDS011;58446;41.490;22.098;2023-06-24T12:23:53;11.95;;;7.88;;
70825;SDS011;58446;41.490;22.098;2023-06-24T12:26:18;13.37;;;7.80;;
70825;SDS011;58446;41.490;22.098;2023-06-24T12:28:44;11.98;;;7.95;;
70825;SDS011;58446;41.490;22.098;2023-06-24T12:31:10;13.30;;;8.50;;
70825;SDS011;58446;41.490;22.098;2023-06-24T12:33:36;15.57;;;8.50;;
70825;SDS011;58446;41.490;22.098;2023-06-24T12:36:02;11.67;;;8.33;;
70825;SDS011;58446;41.490;22.098;2023-06-24T12:38:28;14.97;;;8.53;;
70825;SDS011;58446;41.490;22.098;2023-06-24T12:40:53;13.27;;;8.63;;
70825;SDS011;58446;41.490;22.098;2023-06-24T12:43:19;15.77;;;8.43;;
70825;SDS011;58446;41.490;22.098;2023-06-24T12:45:45;13.30;;;8.27;;
70825;SDS011;58446;41.490;22.098;2023-06-24T12:48:12;12.70;;;8.77;;
70825;SDS011;58446;41.490;22.098;2023-06-24T12:50:38;13.82;;;8.73;;
70825;SDS011;58446;41.490;22.098;2023-06-24T12:53:04;15.43;;;8.55;;
70825;SDS011;58446;41.490;22.098;2023-06-24T12:55:29;13.17;;;8.37;;
70825;SDS011;58446;41.490;22.098;2023-06-24T12:57:55;12.63;;;8.80;;
70825;SDS011;58446;41.490;22.098;2023-06-24T13:00:22;12.05;;;7.95;;
70825;SDS011;58446;41.490;22.098;2023-06-24T13:02:49;12.97;;;8.07;;
70825;SDS011;58446;41.490;22.098;2023-06-24T13:05:15;12.48;;;8.13;;
70825;SDS011;58446;41.490;22.098;2023-06-24T13:07:41;13.48;;;7.85;;
70825;SDS011;58446;41.490;22.098;2023-06-24T13:10:07;13.13;;;8.20;;
70825;SDS011;58446;41.490;22.098;2023-06-24T13:12:34;13.15;;;8.50;;
70825;SDS011;58446;41.490;22.098;2023-06-24T13:15:00;13.43;;;8.17;;
70825;SDS011;58446;41.490;22.098;2023-06-24T13:17:26;13.48;;;8.82;;
70825;SDS011;58446;41.490;22.098;2023-06-24T13:19:52;12.20;;;8.38;;
70825;SDS011;58446;41.490;22.098;2023-06-24T13:22:18;15.47;;;9.17;;
70825;SDS011;58446;41.490;22.098;2023-06-24T13:24:44;13.48;;;9.30;;
70825;SDS011;58446;41.490;22.098;2023-06-24T13:27:10;16.58;;;9.52;;
70825;SDS011;58446;41.490;22.098;2023-06-24T13:29:36;13.60;;;9.00;;
70825;SDS011;58446;41.490;22.098;2023-06-24T13:32:02;13.10;;;9.15;;
70825;SDS011;58446;41.490;22.098;2023-06-24T13:34:28;16.95;;;10.07;;
70825;SDS011;58446;41.490;22.098;2023-06-24T13:36:54;14.67;;;9.60;;
70825;SDS011;58446;41.490;22.098;2023-06-24T13:39:19;20.20;;;11.25;;
70825;SDS011;58446;41.490;22.098;2023-06-24T13:41:48;18.33;;;10.80;;
70825;SDS011;58446;41.490;22.098;2023-06-24T13:44:15;21.10;;;10.15;;
70825;SDS011;58446;41.490;22.098;2023-06-24T13:46:40;17.70;;;10.07;;
70825;SDS011;58446;41.490;22.098;2023-06-24T13:49:06;19.02;;;10.48;;
70825;SDS011;58446;41.490;22.098;2023-06-24T13:51:32;18.67;;;10.00;;
70825;SDS011;58446;41.490;22.098;2023-06-24T13:53:58;19.60;;;9.80;;
70825;SDS011;58446;41.490;22.098;2023-06-24T13:56:24;20.67;;;10.00;;
70825;SDS011;58446;41.490;22.098;2023-06-24T13:58:51;19.63;;;9.00;;
70825;SDS011;58446;41.490;22.098;2023-06-24T14:01:17;23.63;;;7.30;;
70825;SDS011;58446;41.490;22.098;2023-06-24T14:03:46;18.98;;;5.80;;
70825;SDS011;58446;41.490;22.098;2023-06-24T14:06:13;18.75;;;5.22;;
70825;SDS011;58446;41.490;22.098;2023-06-24T14:08:40;12.75;;;4.68;;
70825;SDS011;58446;41.490;22.098;2023-06-24T14:11:06;13.60;;;3.97;;
70825;SDS011;58446;41.490;22.098;2023-06-24T15:20:34;14.48;;;5.85;;
70825;SDS011;58446;41.490;22.098;2023-06-24T15:23:00;17.17;;;7.20;;
70825;SDS011;58446;41.490;22.098;2023-06-24T15:25:25;19.73;;;5.93;;
70825;SDS011;58446;41.490;22.098;2023-06-24T15:27:53;14.98;;;6.18;;
70825;SDS011;58446;41.490;22.098;2023-06-24T15:30:19;16.13;;;6.80;;
70825;SDS011;58446;41.490;22.098;2023-06-24T15:32:45;12.97;;;6.20;;
70825;SDS011;58446;41.490;22.098;2023-06-24T15:35:11;14.60;;;6.47;;
70825;SDS011;58446;41.490;22.098;2023-06-24T15:37:40;16.40;;;6.93;;
70825;SDS011;58446;41.490;22.098;2023-06-24T15:40:06;14.50;;;7.00;;
70825;SDS011;58446;41.490;22.098;2023-06-24T15:42:32;17.98;;;6.75;;
70825;SDS011;58446;41.490;22.098;2023-06-24T15:44:57;14.73;;;6.53;;
70825;SDS011;58446;41.490;22.098;2023-06-24T15:47:23;13.67;;;6.33;;
70825;SDS011;58446;41.490;22.098;2023-06-24T15:49:49;15.67;;;6.57;;
70825;SDS011;58446;41.490;22.098;2023-06-24T15:52:16;14.80;;;6.25;;